Time;durP1;ratioP1;P1;durP2;ratioP2;P2;SDS_P1;SDS_P2;PMS_P1;PMS_P2;Temp;Humidity;BMP_temperature;BMP_pressure;BME280_temperature;BME280_humidity;BME280_pressure;Samples;Min_cycle;Max_cycle;Signal;HPM_P1;HPM_P2
2021/05/29 00:01:59;;;;;;;19.08;13.38;;;;;;;;;;5053067;28;20673;-57
2021/05/29 00:04:25;;;;;;;19.80;14.25;;;;;;;;;;5053099;28;20600;-58
2021/05/29 00:06:52;;;;;;;18.83;13.90;;;;;;;;;;5053387;28;20335;-57
2021/05/29 00:09:19;;;;;;;14.60;11.68;;;;;;;;;;5053480;28;20589;-59
2021/05/29 00:11:46;;;;;;;19.13;13.35;;;;;;;;;;5053247;28;20681;-57
2021/05/29 00:14:12;;;;;;;19.35;12.57;;;;;;;;;;5053435;28;20629;-58
2021/05/29 00:16:40;;;;;;;16.20;13.70;;;;;;;;;;5053086;28;20671;-58
2021/05/29 00:19:07;;;;;;;14.23;12.68;;;;;;;;;;5053250;28;20197;-57
2021/05/29 00:21:34;;;;;;;19.20;14.77;;;;;;;;;;5053368;28;20263;-57
2021/05/29 00:24:00;;;;;;;17.40;12.45;;;;;;;;;;5055658;28;20589;-59
2021/05/29 00:26:27;;;;;;;17.52;12.90;;;;;;;;;;5057269;28;20772;-57
2021/05/29 00:28:54;;;;;;;19.58;14.60;;;;;;;;;;5057077;28;20217;-59
2021/05/29 00:31:21;;;;;;;15.63;13.13;;;;;;;;;;5057166;28;20231;-58
2021/05/29 00:33:49;;;;;;;18.58;13.70;;;;;;;;;;5056689;28;20283;-59
2021/05/29 00:36:15;;;;;;;18.15;12.70;;;;;;;;;;5057304;28;20259;-58
2021/05/29 00:38:47;;;;;;;17.75;13.10;;;;;;;;;;5057247;28;20201;-58
2021/05/29 00:41:14;;;;;;;16.15;12.48;;;;;;;;;;5057355;28;20186;-57
2021/05/29 00:43:41;;;;;;;20.27;13.40;;;;;;;;;;5057142;28;20283;-58
2021/05/29 00:46:08;;;;;;;17.60;12.98;;;;;;;;;;5057343;28;20205;-58
2021/05/29 00:48:35;;;;;;;18.27;13.25;;;;;;;;;;5057486;28;20221;-58
2021/05/29 00:51:03;;;;;;;18.80;13.02;;;;;;;;;;5058353;28;20255;-58
2021/05/29 00:53:31;;;;;;;19.48;12.80;;;;;;;;;;5057595;28;20232;-58
2021/05/29 00:55:58;;;;;;;18.45;13.60;;;;;;;;;;5056745;28;20723;-57
2021/05/29 00:58:26;;;;;;;18.50;14.10;;;;;;;;;;5056450;28;20202;-57
2021/05/29 01:00:53;;;;;;;15.50;12.60;;;;;;;;;;5056773;28;20201;-57
2021/05/29 01:03:20;;;;;;;17.92;12.50;;;;;;;;;;5056598;28;20283;-57
2021/05/29 01:05:47;;;;;;;13.25;11.85;;;;;;;;;;5056335;28;20202;-57
2021/05/29 01:08:15;;;;;;;16.20;11.73;;;;;;;;;;5056411;28;20251;-58
2021/05/29 01:10:43;;;;;;;15.30;12.57;;;;;;;;;;5056563;28;20206;-58
2021/05/29 01:13:10;;;;;;;16.17;12.20;;;;;;;;;;5056322;28;20249;-58
2021/05/29 01:15:39;;;;;;;16.17;12.68;;;;;;;;;;5056478;28;20304;-57
2021/05/29 01:18:07;;;;;;;14.70;11.77;;;;;;;;;;5056201;28;20658;-57
2021/05/29 01:20:34;;;;;;;16.27;12.45;;;;;;;;;;5056319;28;20256;-57
2021/05/29 01:23:02;;;;;;;21.52;12.57;;;;;;;;;;5056647;28;20230;-57
2021/05/29 01:25:31;;;;;;;12.98;10.07;;;;;;;;;;5056390;28;20224;-58
2021/05/29 01:28:00;;;;;;;15.27;11.93;;;;;;;;;;5055646;28;20206;-56
2021/05/29 01:30:28;;;;;;;14.52;11.93;;;;;;;;;;5056097;28;20204;-58
2021/05/29 01:32:55;;;;;;;14.90;10.95;;;;;;;;;;5055726;28;20230;-58
2021/05/29 01:35:22;;;;;;;15.77;11.00;;;;;;;;;;5055064;28;20259;-58
2021/05/29 01:37:49;;;;;;;12.77;10.95;;;;;;;;;;5055907;28;20210;-58
2021/05/29 01:40:17;;;;;;;12.75;10.50;;;;;;;;;;5055760;28;20298;-58
2021/05/29 01:42:44;;;;;;;12.95;10.10;;;;;;;;;;5055507;28;20221;-58
2021/05/29 01:45:12;;;;;;;16.13;10.65;;;;;;;;;;5055597;28;20666;-58
2021/05/29 01:47:42;;;;;;;12.90;9.65;;;;;;;;;;5055925;28;20197;-57
2021/05/29 01:50:10;;;;;;;17.80;11.00;;;;;;;;;;5055216;28;20599;-57
2021/05/29 01:52:47;;;;;;;15.05;10.45;;;;;;;;;;5055584;28;20588;-57
2021/05/29 01:55:14;;;;;;;11.80;9.63;;;;;;;;;;5055645;28;20557;-57
2021/05/29 01:57:42;;;;;;;13.57;8.70;;;;;;;;;;5055503;28;20213;-57
2021/05/29 02:00:09;;;;;;;13.50;9.85;;;;;;;;;;5055215;28;20198;-57
2021/05/29 02:02:36;;;;;;;13.98;10.23;;;;;;;;;;5055431;28;20280;-58
2021/05/29 02:05:09;;;;;;;15.63;9.70;;;;;;;;;;5055477;28;20217;-57
2021/05/29 02:07:36;;;;;;;18.08;10.80;;;;;;;;;;5055116;28;20201;-57
2021/05/29 02:10:03;;;;;;;13.13;9.73;;;;;;;;;;5054928;28;20221;-57
2021/05/29 02:12:37;;;;;;;14.75;10.75;;;;;;;;;;5055978;28;20228;-58
2021/05/29 02:15:05;;;;;;;16.80;10.80;;;;;;;;;;5056836;28;20182;-59
2021/05/29 02:17:32;;;;;;;12.80;9.35;;;;;;;;;;5056067;28;20220;-57
2021/05/29 02:19:58;;;;;;;10.90;9.70;;;;;;;;;;5055943;28;20271;-57
2021/05/29 02:22:25;;;;;;;19.40;11.30;;;;;;;;;;5055380;28;20245;-57
2021/05/29 02:24:52;;;;;;;13.80;9.52;;;;;;;;;;5055280;28;20228;-57
2021/05/29 02:27:19;;;;;;;15.77;11.60;;;;;;;;;;5054999;28;20198;-58
2021/05/29 02:29:46;;;;;;;13.65;9.93;;;;;;;;;;5054969;28;20248;-57
2021/05/29 02:32:13;;;;;;;17.25;9.93;;;;;;;;;;5054677;28;20205;-58
2021/05/29 02:34:40;;;;;;;16.60;10.68;;;;;;;;;;5094941;22;20244;-63
2021/05/29 02:37:07;;;;;;;12.93;9.85;;;;;;;;;;5054958;28;20201;-63
2021/05/29 02:39:33;;;;;;;17.52;10.65;;;;;;;;;;5054560;28;20193;-62
2021/05/29 02:42:00;;;;;;;13.55;9.25;;;;;;;;;;5054747;28;20213;-62
2021/05/29 02:44:27;;;;;;;13.68;9.65;;;;;;;;;;5054808;28;20221;-62
2021/05/29 02:46:54;;;;;;;14.20;10.50;;;;;;;;;;5053490;28;20205;-62
2021/05/29 02:49:21;;;;;;;13.00;9.20;;;;;;;;;;5054756;28;20221;-62
2021/05/29 02:51:48;;;;;;;12.18;10.35;;;;;;;;;;5054517;28;20693;-62
2021/05/29 02:54:15;;;;;;;13.00;9.50;;;;;;;;;;5054399;28;20276;-62
2021/05/29 02:56:42;;;;;;;14.25;10.38;;;;;;;;;;5054621;28;20205;-62
2021/05/29 02:59:08;;;;;;;16.13;10.10;;;;;;;;;;5054734;28;20206;-62
2021/05/29 03:01:35;;;;;;;12.75;8.80;;;;;;;;;;5054331;28;20213;-62
2021/05/29 03:04:02;;;;;;;12.93;9.80;;;;;;;;;;5054130;28;20226;-62
2021/05/29 03:06:30;;;;;;;13.48;10.38;;;;;;;;;;5054218;28;20209;-62
2021/05/29 03:08:58;;;;;;;11.93;8.95;;;;;;;;;;5054350;28;20218;-62
2021/05/29 03:11:25;;;;;;;10.88;7.97;;;;;;;;;;5054559;28;20258;-62
2021/05/29 03:13:51;;;;;;;12.93;9.20;;;;;;;;;;5054065;28;20790;-62
2021/05/29 03:16:18;;;;;;;12.77;9.48;;;;;;;;;;5053876;28;20260;-62
2021/05/29 03:18:45;;;;;;;12.60;8.25;;;;;;;;;;5054014;28;20197;-62
2021/05/29 03:21:11;;;;;;;12.25;8.85;;;;;;;;;;5053984;28;20201;-62
2021/05/29 03:23:39;;;;;;;10.68;7.93;;;;;;;;;;5053985;28;20614;-63
2021/05/29 03:26:06;;;;;;;11.98;8.15;;;;;;;;;;5053607;28;20201;-62
2021/05/29 03:28:33;;;;;;;11.18;8.48;;;;;;;;;;5053479;28;20217;-62
2021/05/29 03:31:00;;;;;;;12.40;8.65;;;;;;;;;;5053779;28;20213;-62
2021/05/29 03:33:26;;;;;;;11.40;8.55;;;;;;;;;;5053238;28;20233;-63
2021/05/29 03:35:53;;;;;;;10.40;7.35;;;;;;;;;;5053706;28;20605;-62
2021/05/29 03:38:20;;;;;;;10.05;7.70;;;;;;;;;;5053328;28;20603;-62
2021/05/29 03:40:48;;;;;;;12.48;7.35;;;;;;;;;;5053149;28;20201;-62
2021/05/29 03:43:14;;;;;;;9.85;7.93;;;;;;;;;;5053205;28;20705;-62
2021/05/29 03:45:41;;;;;;;12.43;9.13;;;;;;;;;;5053229;28;20673;-62
2021/05/29 03:48:08;;;;;;;10.32;7.65;;;;;;;;;;5053532;28;20202;-62
2021/05/29 03:50:38;;;;;;;10.20;7.82;;;;;;;;;;5053528;28;20205;-62
2021/05/29 03:53:05;;;;;;;12.52;8.18;;;;;;;;;;5053184;28;20316;-63
2021/05/29 03:55:33;;;;;;;10.70;8.15;;;;;;;;;;5053459;28;20198;-62
2021/05/29 03:58:00;;;;;;;10.93;7.88;;;;;;;;;;5053078;28;20298;-63
2021/05/29 04:00:28;;;;;;;11.13;8.23;;;;;;;;;;5053416;28;20242;-62
2021/05/29 04:08:09;;;;;;;12.40;7.75;;;;;;;;;;5091748;27;20960;-58
2021/05/29 04:10:37;;;;;;;10.52;8.23;;;;;;;;;;5090817;28;20249;-59
2021/05/29 04:13:04;;;;;;;10.52;8.38;;;;;;;;;;5090930;28;20200;-59
2021/05/29 04:15:31;;;;;;;8.50;7.10;;;;;;;;;;5090917;28;20200;-58
2021/05/29 04:17:57;;;;;;;10.18;8.52;;;;;;;;;;5106459;22;20201;-56
2021/05/29 04:20:25;;;;;;;12.45;8.40;;;;;;;;;;5050451;28;20218;-57
2021/05/29 04:22:52;;;;;;;11.68;8.88;;;;;;;;;;5050718;28;20201;-56
2021/05/29 04:25:21;;;;;;;10.73;8.60;;;;;;;;;;5050400;28;20677;-57
2021/05/29 04:27:48;;;;;;;10.15;8.48;;;;;;;;;;5050447;28;20213;-56
2021/05/29 04:30:16;;;;;;;9.23;8.20;;;;;;;;;;5050115;28;20784;-57
2021/05/29 04:32:43;;;;;;;10.27;8.13;;;;;;;;;;5050326;28;20205;-56
2021/05/29 04:35:10;;;;;;;9.57;8.18;;;;;;;;;;5085408;22;20229;-59
2021/05/29 04:37:49;;;;;;;14.90;8.68;;;;;;;;;;5050548;28;20178;-59
2021/05/29 04:40:17;;;;;;;11.27;7.78;;;;;;;;;;5050306;28;20190;-59
2021/05/29 04:42:45;;;;;;;12.15;7.47;;;;;;;;;;5050211;28;20256;-58
2021/05/29 04:45:12;;;;;;;11.20;8.10;;;;;;;;;;5050624;28;20222;-59
2021/05/29 04:47:39;;;;;;;11.10;8.43;;;;;;;;;;5050619;28;20229;-59
2021/05/29 04:50:07;;;;;;;12.00;7.25;;;;;;;;;;5065418;22;20502;-57
2021/05/29 04:52:34;;;;;;;9.55;7.55;;;;;;;;;;5050206;28;20216;-56
2021/05/29 04:55:01;;;;;;;11.68;8.20;;;;;;;;;;5049778;28;20209;-57
2021/05/29 04:57:28;;;;;;;12.32;8.80;;;;;;;;;;5049737;28;20201;-56
2021/05/29 04:59:55;;;;;;;10.45;8.55;;;;;;;;;;5049700;28;20229;-56
2021/05/29 05:02:22;;;;;;;13.75;9.13;;;;;;;;;;5050070;28;20635;-57
2021/05/29 05:04:49;;;;;;;12.77;8.10;;;;;;;;;;5049887;28;20229;-56
2021/05/29 05:07:16;;;;;;;9.05;7.85;;;;;;;;;;5050242;28;20224;-57
2021/05/29 05:15:15;;;;;;;11.55;8.20;;;;;;;;;;5074814;22;20229;-56
2021/05/29 05:17:42;;;;;;;11.80;8.27;;;;;;;;;;5046506;28;20234;-57
2021/05/29 05:20:10;;;;;;;10.63;8.02;;;;;;;;;;5036456;28;20339;-57
2021/05/29 05:22:37;;;;;;;10.40;8.45;;;;;;;;;;5036266;28;20217;-56
2021/05/29 05:25:05;;;;;;;10.30;6.57;;;;;;;;;;5036166;28;20222;-57
2021/05/29 05:27:31;;;;;;;10.85;7.45;;;;;;;;;;5035972;28;20229;-57
2021/05/29 05:29:58;;;;;;;11.65;7.82;;;;;;;;;;5036163;28;20229;-57
2021/05/29 05:32:26;;;;;;;9.65;7.95;;;;;;;;;;5036162;28;20210;-56
2021/05/29 05:34:53;;;;;;;9.80;7.38;;;;;;;;;;5037065;28;20712;-56
2021/05/29 05:37:20;;;;;;;10.52;7.47;;;;;;;;;;5036951;28;20202;-56
2021/05/29 05:39:47;;;;;;;14.23;7.60;;;;;;;;;;5037130;28;20224;-57
2021/05/29 05:42:14;;;;;;;17.90;9.57;;;;;;;;;;5038861;28;20203;-56
2021/05/29 05:47:19;;;;;;;10.23;8.77;;;;;;;;;;5053195;28;20233;-57
2021/05/29 05:49:46;;;;;;;16.23;8.23;;;;;;;;;;5064923;22;20234;-57
2021/05/29 05:52:13;;;;;;;12.13;8.50;;;;;;;;;;5035743;28;20206;-57
2021/05/29 05:54:40;;;;;;;10.45;8.25;;;;;;;;;;5036464;28;20213;-56
2021/05/29 05:57:07;;;;;;;9.00;7.68;;;;;;;;;;5035163;28;20666;-57
2021/05/29 05:59:34;;;;;;;9.55;8.55;;;;;;;;;;5035364;28;20304;-57
2021/05/29 06:02:01;;;;;;;10.45;8.30;;;;;;;;;;5035913;28;20209;-57
2021/05/29 06:04:28;;;;;;;10.95;8.13;;;;;;;;;;5035574;28;20206;-56
2021/05/29 06:06:55;;;;;;;10.77;8.02;;;;;;;;;;5035127;28;20763;-57
2021/05/29 06:09:22;;;;;;;13.98;8.73;;;;;;;;;;5035333;28;20222;-57
2021/05/29 06:11:49;;;;;;;13.85;9.40;;;;;;;;;;5035291;28;20348;-56
2021/05/29 06:22:21;;;;;;;13.52;8.70;;;;;;;;;;5053534;28;20210;-57
2021/05/29 06:24:48;;;;;;;12.82;9.50;;;;;;;;;;5079363;22;20283;-58
2021/05/29 06:27:15;;;;;;;12.02;9.02;;;;;;;;;;5055261;28;20230;-59
2021/05/29 06:29:41;;;;;;;13.05;9.07;;;;;;;;;;5053811;28;20616;-58
2021/05/29 06:32:12;;;;;;;11.32;9.18;;;;;;;;;;5054535;28;20208;-58
2021/05/29 06:34:39;;;;;;;11.98;8.68;;;;;;;;;;5054660;28;20221;-59
2021/05/29 06:37:06;;;;;;;11.77;9.00;;;;;;;;;;5054322;28;20198;-59
2021/05/29 06:39:34;;;;;;;12.33;9.30;;;;;;;;;;5054242;28;20455;-60
2021/05/29 06:42:01;;;;;;;9.10;8.15;;;;;;;;;;5054621;28;20440;-60
2021/05/29 06:44:28;;;;;;;9.93;7.87;;;;;;;;;;5054898;28;20264;-60
2021/05/29 06:46:55;;;;;;;16.47;8.97;;;;;;;;;;5053969;28;20472;-60
2021/05/29 06:49:22;;;;;;;13.83;8.90;;;;;;;;;;5054108;28;20440;-61
2021/05/29 06:52:01;;;;;;;14.07;8.73;;;;;;;;;;5054407;28;20448;-60
2021/05/29 06:54:39;;;;;;;11.17;8.53;;;;;;;;;;5082927;22;20918;-58
2021/05/29 06:59:52;;;;;;;11.57;9.60;;;;;;;;;;5054068;28;20320;-58
2021/05/29 07:02:19;;;;;;;12.05;9.93;;;;;;;;;;5053533;28;20448;-57
2021/05/29 07:04:46;;;;;;;13.37;9.83;;;;;;;;;;5053290;28;20779;-57
2021/05/29 07:07:13;;;;;;;13.00;9.70;;;;;;;;;;5053828;28;20487;-58
2021/05/29 07:09:39;;;;;;;13.13;8.60;;;;;;;;;;5053779;28;20460;-57
2021/05/29 07:12:08;;;;;;;10.50;8.83;;;;;;;;;;5053705;28;20448;-57
2021/05/29 07:14:35;;;;;;;9.83;8.00;;;;;;;;;;5069039;22;21003;-60
2021/05/29 07:17:03;;;;;;;12.17;8.97;;;;;;;;;;5053415;28;20455;-60
2021/05/29 07:19:30;;;;;;;11.90;8.60;;;;;;;;;;5053531;28;20517;-60
2021/05/29 07:21:56;;;;;;;10.93;8.60;;;;;;;;;;5053451;28;20836;-59
2021/05/29 07:24:24;;;;;;;10.27;8.73;;;;;;;;;;5053275;28;20472;-60
2021/05/29 07:26:51;;;;;;;14.87;11.37;;;;;;;;;;5053199;28;20516;-59
2021/05/29 07:29:19;;;;;;;14.70;9.80;;;;;;;;;;5053997;28;20448;-61
2021/05/29 07:31:46;;;;;;;11.67;9.17;;;;;;;;;;5053809;28;20459;-60
2021/05/29 07:34:13;;;;;;;17.17;9.80;;;;;;;;;;5053080;28;20471;-59
2021/05/29 07:36:41;;;;;;;13.47;10.90;;;;;;;;;;5077404;22;20586;-59
2021/05/29 07:39:08;;;;;;;15.13;9.53;;;;;;;;;;5052875;28;20445;-59
2021/05/29 07:41:35;;;;;;;11.03;8.87;;;;;;;;;;5052829;28;20446;-59
2021/05/29 07:44:02;;;;;;;10.80;8.37;;;;;;;;;;5053255;28;20435;-59
2021/05/29 07:46:30;;;;;;;15.23;8.77;;;;;;;;;;5068699;22;20480;-60
2021/05/29 07:48:57;;;;;;;11.30;8.47;;;;;;;;;;5054451;28;20439;-59
2021/05/29 07:51:24;;;;;;;12.83;8.80;;;;;;;;;;5053048;28;20448;-60
2021/05/29 07:53:51;;;;;;;11.30;8.70;;;;;;;;;;5053147;28;20444;-61
2021/05/29 07:56:18;;;;;;;15.67;9.73;;;;;;;;;;5053096;28;20466;-60
2021/05/29 07:58:47;;;;;;;11.73;9.20;;;;;;;;;;5052984;28;20440;-58
2021/05/29 08:01:14;;;;;;;11.30;8.83;;;;;;;;;;5052833;28;20495;-59
2021/05/29 08:03:42;;;;;;;12.53;9.80;;;;;;;;;;5053095;28;20441;-58
2021/05/29 08:06:13;;;;;;;11.83;10.33;;;;;;;;;;5052768;28;20456;-60
2021/05/29 08:08:40;;;;;;;15.77;9.40;;;;;;;;;;5053319;28;20448;-60
2021/05/29 08:11:07;;;;;;;13.83;9.80;;;;;;;;;;5053059;28;20448;-61
2021/05/29 08:13:33;;;;;;;14.30;10.53;;;;;;;;;;5053454;28;20452;-59
2021/05/29 08:16:00;;;;;;;11.17;9.90;;;;;;;;;;5052499;28;20468;-59
2021/05/29 08:18:27;;;;;;;19.07;12.30;;;;;;;;;;5053079;28;20443;-60
2021/05/29 08:20:55;;;;;;;14.67;11.20;;;;;;;;;;5054299;28;20474;-58
2021/05/29 08:23:22;;;;;;;12.37;9.20;;;;;;;;;;5053259;28;20471;-59
2021/05/29 08:25:48;;;;;;;11.50;9.50;;;;;;;;;;5052551;28;20474;-60
2021/05/29 08:28:15;;;;;;;18.73;10.40;;;;;;;;;;5052760;28;20480;-59
2021/05/29 08:30:42;;;;;;;11.90;8.67;;;;;;;;;;5052675;28;20944;-59
2021/05/29 08:33:09;;;;;;;11.87;9.40;;;;;;;;;;5052908;28;20451;-59
2021/05/29 08:35:36;;;;;;;13.60;9.50;;;;;;;;;;5052774;28;20472;-59
2021/05/29 08:38:04;;;;;;;17.63;9.43;;;;;;;;;;5052552;28;20455;-59
2021/05/29 08:40:31;;;;;;;13.73;10.33;;;;;;;;;;5052337;28;20989;-60
2021/05/29 08:42:57;;;;;;;13.10;10.80;;;;;;;;;;5052478;28;20471;-59
2021/05/29 08:45:24;;;;;;;14.87;10.97;;;;;;;;;;5052885;28;20476;-60
2021/05/29 08:47:51;;;;;;;15.43;11.10;;;;;;;;;;5052606;28;20460;-59
2021/05/29 08:50:19;;;;;;;17.17;11.90;;;;;;;;;;5052715;28;20459;-59
2021/05/29 08:52:46;;;;;;;13.70;11.53;;;;;;;;;;5052515;28;20456;-59
2021/05/29 08:55:15;;;;;;;16.90;13.87;;;;;;;;;;5056526;28;20476;-59
2021/05/29 08:57:42;;;;;;;21.00;18.60;;;;;;;;;;5056372;28;20529;-59
2021/05/29 09:00:10;;;;;;;16.20;14.07;;;;;;;;;;5056269;28;20458;-60
2021/05/29 09:02:52;;;;;;;17.50;12.80;;;;;;;;;;5055915;28;20452;-59
2021/05/29 09:05:18;;;;;;;16.10;13.47;;;;;;;;;;5055586;28;20471;-61
2021/05/29 09:07:45;;;;;;;19.20;13.80;;;;;;;;;;5055841;28;20480;-59
2021/05/29 09:10:17;;;;;;;14.83;11.97;;;;;;;;;;5055911;28;20456;-61
2021/05/29 09:13:00;;;;;;;17.90;11.50;;;;;;;;;;5055880;28;20444;-59
2021/05/29 09:15:39;;;;;;;14.87;11.13;;;;;;;;;;5056110;28;21058;-59
2021/05/29 09:18:06;;;;;;;14.87;11.77;;;;;;;;;;5056073;28;20431;-59
2021/05/29 09:20:32;;;;;;;13.80;12.13;;;;;;;;;;5056603;28;20444;-60
2021/05/29 09:23:00;;;;;;;16.40;12.00;;;;;;;;;;5056064;28;20440;-60
2021/05/29 09:25:28;;;;;;;16.00;12.93;;;;;;;;;;5055849;28;20474;-58
2021/05/29 09:27:57;;;;;;;13.17;11.77;;;;;;;;;;5055902;28;20479;-58
2021/05/29 09:30:44;;;;;;;12.93;11.50;;;;;;;;;;5055894;28;20814;-58
2021/05/29 09:33:20;;;;;;;14.77;11.80;;;;;;;;;;5055404;28;20872;-58
2021/05/29 09:35:48;;;;;;;14.43;10.90;;;;;;;;;;5055375;28;20842;-60
2021/05/29 09:38:15;;;;;;;15.60;12.43;;;;;;;;;;5055290;28;21004;-62
2021/05/29 09:40:49;;;;;;;11.40;10.23;;;;;;;;;;5055113;28;20506;-60
2021/05/29 09:43:16;;;;;;;12.33;10.40;;;;;;;;;;5055250;28;20428;-59
2021/05/29 09:45:43;;;;;;;11.03;9.83;;;;;;;;;;5055150;28;20472;-60
2021/05/29 09:48:11;;;;;;;14.80;10.30;;;;;;;;;;5055318;28;20480;-60
2021/05/29 09:50:54;;;;;;;12.13;9.37;;;;;;;;;;5055134;28;20452;-59
2021/05/29 09:53:24;;;;;;;11.63;9.30;;;;;;;;;;5056754;28;20518;-59
2021/05/29 09:55:52;;;;;;;12.17;8.87;;;;;;;;;;5054961;28;20479;-59
2021/05/29 09:58:19;;;;;;;11.90;9.63;;;;;;;;;;5054715;28;20447;-59
2021/05/29 10:00:46;;;;;;;14.73;10.67;;;;;;;;;;5055119;28;20443;-59
2021/05/29 10:03:14;;;;;;;14.50;10.03;;;;;;;;;;5054813;28;20443;-59
2021/05/29 10:05:42;;;;;;;11.40;8.97;;;;;;;;;;5054914;28;20834;-59
2021/05/29 10:08:13;;;;;;;12.63;10.30;;;;;;;;;;5054983;28;20479;-59
2021/05/29 10:10:39;;;;;;;14.03;10.13;;;;;;;;;;5055071;28;20432;-62
2021/05/29 10:13:07;;;;;;;14.77;9.93;;;;;;;;;;5054527;28;20939;-61
2021/05/29 10:15:34;;;;;;;11.77;9.60;;;;;;;;;;5054741;28;20530;-59
2021/05/29 10:18:03;;;;;;;13.47;10.40;;;;;;;;;;5055469;28;20444;-60
2021/05/29 10:20:32;;;;;;;14.13;10.37;;;;;;;;;;5054875;28;20449;-60
2021/05/29 10:22:59;;;;;;;12.77;10.37;;;;;;;;;;5054930;28;20451;-59
2021/05/29 10:25:26;;;;;;;14.97;11.90;;;;;;;;;;5088158;22;20500;-59
2021/05/29 10:30:29;;;;;;;16.00;10.73;;;;;;;;;;5052349;28;20502;-59
2021/05/29 10:33:12;;;;;;;15.20;11.10;;;;;;;;;;5054566;28;20424;-59
2021/05/29 10:35:39;;;;;;;16.80;10.60;;;;;;;;;;5054026;28;20440;-59
2021/05/29 10:38:07;;;;;;;12.57;8.67;;;;;;;;;;5053981;28;20954;-59
2021/05/29 10:40:35;;;;;;;13.30;9.63;;;;;;;;;;5053900;28;20440;-59
2021/05/29 10:43:11;;;;;;;13.20;9.60;;;;;;;;;;5054182;28;20555;-59
2021/05/29 10:45:40;;;;;;;12.70;9.10;;;;;;;;;;5089206;22;20588;-60
2021/05/29 10:48:08;;;;;;;12.37;10.60;;;;;;;;;;5054141;28;20583;-58
2021/05/29 10:50:54;;;;;;;12.73;9.83;;;;;;;;;;5054108;28;20444;-59
2021/05/29 10:53:36;;;;;;;11.23;9.87;;;;;;;;;;5053795;28;20969;-58
2021/05/29 10:56:21;;;;;;;11.43;9.40;;;;;;;;;;5050583;28;20478;-58
2021/05/29 11:01:45;;;;;;;11.90;9.27;;;;;;;;;;5086224;22;20508;-59
2021/05/29 11:04:22;;;;;;;11.37;9.43;;;;;;;;;;5054884;28;20448;-65
2021/05/29 11:06:51;;;;;;;13.43;9.50;;;;;;;;;;5053144;28;20891;-58
2021/05/29 11:09:18;;;;;;;11.83;8.93;;;;;;;;;;5053690;28;20448;-58
2021/05/29 11:11:52;;;;;;;11.10;9.47;;;;;;;;;;5053135;28;20444;-58
2021/05/29 11:14:20;;;;;;;12.57;9.30;;;;;;;;;;5053759;28;20547;-60
2021/05/29 11:17:06;;;;;;;12.07;9.57;;;;;;;;;;5053090;28;20448;-60
2021/05/29 11:19:34;;;;;;;12.57;8.93;;;;;;;;;;5053252;28;20975;-59
2021/05/29 11:22:01;;;;;;;12.00;8.57;;;;;;;;;;5053693;28;20452;-59
2021/05/29 11:24:28;;;;;;;8.57;7.30;;;;;;;;;;5053701;28;20482;-59
2021/05/29 11:26:55;;;;;;;12.40;9.00;;;;;;;;;;5054978;28;20491;-59
2021/05/29 11:29:22;;;;;;;11.60;8.67;;;;;;;;;;5053449;28;20475;-60
2021/05/29 11:31:49;;;;;;;9.43;8.40;;;;;;;;;;5053763;28;20448;-60
2021/05/29 11:34:16;;;;;;;9.70;8.07;;;;;;;;;;5053538;28;20459;-59
2021/05/29 11:36:44;;;;;;;10.03;8.00;;;;;;;;;;5069267;22;20500;-58
2021/05/29 11:39:12;;;;;;;9.03;7.87;;;;;;;;;;5077712;22;20915;-59
2021/05/29 11:41:39;;;;;;;8.83;7.40;;;;;;;;;;5052930;28;20454;-58
2021/05/29 11:44:18;;;;;;;12.13;9.13;;;;;;;;;;5053471;28;20444;-59
2021/05/29 11:46:45;;;;;;;9.13;8.23;;;;;;;;;;5053206;28;20475;-59
2021/05/29 11:49:13;;;;;;;9.73;8.50;;;;;;;;;;5053060;28;20518;-59
2021/05/29 11:51:41;;;;;;;13.20;9.23;;;;;;;;;;5053005;28;20448;-60
2021/05/29 11:54:10;;;;;;;11.83;8.57;;;;;;;;;;5052901;28;20475;-60
2021/05/29 11:56:38;;;;;;;10.80;8.27;;;;;;;;;;5052742;28;20461;-60
2021/05/29 11:59:06;;;;;;;10.83;8.33;;;;;;;;;;5052630;28;20472;-60
2021/05/29 12:01:33;;;;;;;10.07;8.13;;;;;;;;;;5052699;28;20998;-60
2021/05/29 12:04:00;;;;;;;8.97;7.83;;;;;;;;;;5052761;28;20444;-60
2021/05/29 12:06:34;;;;;;;7.97;7.00;;;;;;;;;;5052675;28;20863;-60
2021/05/29 12:09:02;;;;;;;7.23;5.97;;;;;;;;;;5052829;28;20468;-60
2021/05/29 12:11:31;;;;;;;7.03;6.17;;;;;;;;;;5054050;28;20827;-58
2021/05/29 12:14:02;;;;;;;7.40;6.40;;;;;;;;;;5052781;28;20452;-59
2021/05/29 12:16:30;;;;;;;6.50;5.53;;;;;;;;;;5052539;28;20907;-60
2021/05/29 12:18:58;;;;;;;7.20;6.20;;;;;;;;;;5052437;28;20472;-58
2021/05/29 12:21:25;;;;;;;6.90;5.83;;;;;;;;;;5052871;28;20447;-60
2021/05/29 12:23:53;;;;;;;8.10;5.87;;;;;;;;;;5052797;28;20451;-59
2021/05/29 12:26:20;;;;;;;7.10;5.83;;;;;;;;;;5052651;28;20471;-60
2021/05/29 12:28:48;;;;;;;10.53;6.47;;;;;;;;;;5055893;28;20511;-60
2021/05/29 12:31:17;;;;;;;8.03;7.17;;;;;;;;;;5056770;28;20447;-60
2021/05/29 12:33:43;;;;;;;8.07;7.13;;;;;;;;;;5056726;28;20444;-59
2021/05/29 12:36:11;;;;;;;8.33;7.43;;;;;;;;;;5056445;28;20898;-61
2021/05/29 12:38:51;;;;;;;7.93;7.07;;;;;;;;;;5056307;28;20559;-59
2021/05/29 12:41:22;;;;;;;9.20;7.30;;;;;;;;;;5056670;28;20438;-59
2021/05/29 12:44:01;;;;;;;8.67;7.77;;;;;;;;;;5056271;28;20447;-58
2021/05/29 12:46:28;;;;;;;7.80;6.73;;;;;;;;;;5056473;28;20427;-59
2021/05/29 12:49:02;;;;;;;8.13;6.47;;;;;;;;;;5056335;28;20480;-59
2021/05/29 12:51:37;;;;;;;7.10;6.40;;;;;;;;;;5056356;28;20769;-60
2021/05/29 12:54:04;;;;;;;8.10;7.13;;;;;;;;;;5056130;28;20424;-60
2021/05/29 12:56:31;;;;;;;8.20;6.97;;;;;;;;;;5056265;28;20444;-59
2021/05/29 12:58:59;;;;;;;8.60;7.70;;;;;;;;;;5056642;28;20472;-60
2021/05/29 13:07:25;;;;;;;7.80;6.83;;;;;;;;;;5056207;28;20466;-59
2021/05/29 13:09:54;;;;;;;8.17;7.37;;;;;;;;;;5071803;22;20503;-59
2021/05/29 13:12:21;;;;;;;8.07;7.23;;;;;;;;;;5056660;28;20444;-59
2021/05/29 13:14:49;;;;;;;7.93;7.10;;;;;;;;;;5056009;28;20444;-59
2021/05/29 13:17:24;;;;;;;8.50;7.30;;;;;;;;;;5056407;28;20756;-59
2021/05/29 13:19:54;;;;;;;8.63;7.40;;;;;;;;;;5056691;28;20463;-59
2021/05/29 13:22:21;;;;;;;8.40;7.30;;;;;;;;;;5081188;22;20504;-61
2021/05/29 13:24:50;;;;;;;8.73;7.10;;;;;;;;;;5055725;28;20450;-60
2021/05/29 13:27:18;;;;;;;8.63;7.33;;;;;;;;;;5055549;28;21005;-60
2021/05/29 13:29:45;;;;;;;9.70;7.87;;;;;;;;;;5055755;28;20448;-59
2021/05/29 13:32:13;;;;;;;9.67;7.00;;;;;;;;;;5055588;28;20978;-58
2021/05/29 13:34:40;;;;;;;9.50;7.17;;;;;;;;;;5055435;28;20458;-59
2021/05/29 13:37:07;;;;;;;8.30;7.27;;;;;;;;;;5055793;28;20468;-60
2021/05/29 13:42:07;;;;;;;8.27;7.17;;;;;;;;;;5072950;22;20476;-59
2021/05/29 13:44:34;;;;;;;10.50;7.80;;;;;;;;;;5079059;22;20495;-59
2021/05/29 13:47:02;;;;;;;10.27;7.67;;;;;;;;;;5055301;28;20492;-61
2021/05/29 13:49:30;;;;;;;7.70;6.60;;;;;;;;;;5055589;28;20551;-59
2021/05/29 13:51:57;;;;;;;7.50;6.70;;;;;;;;;;5054893;28;20844;-61
2021/05/29 13:54:23;;;;;;;8.60;7.70;;;;;;;;;;5054840;28;20468;-59
2021/05/29 13:56:50;;;;;;;8.60;7.70;;;;;;;;;;5055842;28;20466;-57
2021/05/29 13:59:17;;;;;;;7.27;6.00;;;;;;;;;;5054618;28;20493;-60
2021/05/29 14:01:44;;;;;;;7.80;6.80;;;;;;;;;;5054796;28;20452;-59
2021/05/29 14:04:12;;;;;;;9.10;7.10;;;;;;;;;;5054935;28;20467;-60
2021/05/29 14:06:40;;;;;;;8.87;6.87;;;;;;;;;;5054770;28;20548;-59
2021/05/29 14:09:08;;;;;;;10.93;6.93;;;;;;;;;;5054957;28;20448;-59
2021/05/29 14:11:37;;;;;;;9.80;7.03;;;;;;;;;;5054478;28;20946;-60
2021/05/29 14:14:04;;;;;;;6.90;5.83;;;;;;;;;;5054959;28;20986;-58
2021/05/29 14:16:31;;;;;;;7.80;7.00;;;;;;;;;;5080300;22;20515;-61
2021/05/29 14:18:58;;;;;;;6.60;5.83;;;;;;;;;;5056333;28;20448;-59
2021/05/29 14:21:25;;;;;;;8.03;7.20;;;;;;;;;;5054878;28;20448;-59
2021/05/29 14:23:53;;;;;;;8.67;6.23;;;;;;;;;;5087978;22;20492;-59
2021/05/29 14:26:22;;;;;;;7.53;6.70;;;;;;;;;;5054295;28;20478;-58
2021/05/29 14:28:49;;;;;;;9.47;6.90;;;;;;;;;;5054601;28;21029;-60
2021/05/29 14:31:16;;;;;;;8.27;6.90;;;;;;;;;;5054602;28;20471;-59
2021/05/29 14:33:43;;;;;;;7.47;6.70;;;;;;;;;;5053958;28;20461;-58
2021/05/29 14:36:11;;;;;;;7.60;5.70;;;;;;;;;;5079122;22;20488;-59
2021/05/29 14:38:38;;;;;;;6.60;5.53;;;;;;;;;;5054758;28;20432;-62
2021/05/29 14:41:06;;;;;;;6.30;5.70;;;;;;;;;;5054631;28;20444;-61
2021/05/29 14:43:33;;;;;;;8.97;6.80;;;;;;;;;;5054414;28;20448;-60
2021/05/29 14:46:00;;;;;;;7.70;6.90;;;;;;;;;;5054400;28;20444;-60
2021/05/29 14:48:26;;;;;;;9.17;7.60;;;;;;;;;;5054536;28;20475;-61
2021/05/29 14:56:03;;;;;;;7.33;6.60;;;;;;;;;;5071272;28;20499;-60
2021/05/29 14:58:30;;;;;;;9.40;6.80;;;;;;;;;;5073958;28;20447;-60
2021/05/29 15:00:57;;;;;;;7.27;6.57;;;;;;;;;;5074025;28;20470;-60
2021/05/29 15:03:24;;;;;;;10.83;6.80;;;;;;;;;;5074971;28;20455;-58
2021/05/29 15:05:51;;;;;;;10.93;8.23;;;;;;;;;;5054468;28;20472;-58
2021/05/29 15:08:18;;;;;;;9.87;8.87;;;;;;;;;;5069493;22;20476;-60
2021/05/29 15:10:45;;;;;;;11.40;8.30;;;;;;;;;;5054332;28;20462;-58
2021/05/29 15:13:11;;;;;;;8.77;7.83;;;;;;;;;;5053266;28;20444;-58
2021/05/29 15:15:39;;;;;;;8.33;7.37;;;;;;;;;;5053731;28;20494;-59
2021/05/29 15:18:06;;;;;;;8.97;7.30;;;;;;;;;;5053315;28;20561;-60